Time;durP1;ratioP1;P1;durP2;ratioP2;P2;SDS_P1;SDS_P2;PMS_P1;PMS_P2;Temp;Humidity;BMP_temperature;BMP_pressure;BME280_temperature;BME280_humidity;BME280_pressure;Samples;Min_cycle;Max_cycle;Signal;HPM_P1;HPM_P2
2023/12/25 00:01:23;;;;;;;1.13;0.90;;;14.60;53.00;;;;;;5006337;28;20279;-62
2023/12/25 00:03:48;;;;;;;1.07;0.97;;;14.60;53.50;;;;;;5007874;28;20224;-62
2023/12/25 00:06:14;;;;;;;2.53;1.10;;;14.70;53.30;;;;;;5004805;28;20213;-61
2023/12/25 00:08:40;;;;;;;3.33;1.10;;;14.60;53.00;;;;;;5008192;28;20544;-61
2023/12/25 00:11:05;;;;;;;1.17;1.07;;;14.60;53.80;;;;;;5006717;28;20190;-62
2023/12/25 00:13:31;;;;;;;1.47;1.10;;;14.60;53.40;;;;;;5009672;28;20247;-60
2023/12/25 00:15:56;;;;;;;1.50;1.00;;;14.50;53.30;;;;;;5009226;28;20214;-63
2023/12/25 00:18:22;;;;;;;1.63;1.10;;;14.30;53.40;;;;;;5006693;28;20205;-62
2023/12/25 00:20:48;;;;;;;0.80;0.80;;;14.40;53.90;;;;;;5008690;28;20212;-60
2023/12/25 00:23:13;;;;;;;1.83;1.30;;;14.30;53.50;;;;;;5006516;28;20845;-62
2023/12/25 00:25:39;;;;;;;2.10;1.27;;;14.20;53.70;;;;;;5007898;28;20641;-61
2023/12/25 00:28:05;;;;;;;1.27;1.17;;;14.20;53.70;;;;;;5007384;28;20554;-60
2023/12/25 00:30:31;;;;;;;1.63;1.30;;;14.50;53.40;;;;;;5006655;28;20273;-63
2023/12/25 00:32:56;;;;;;;3.93;1.27;;;14.60;53.30;;;;;;5008793;28;20528;-58
2023/12/25 00:35:22;;;;;;;2.70;1.40;;;14.60;52.90;;;;;;5007077;28;20700;-58
2023/12/25 00:37:47;;;;;;;2.47;1.33;;;14.50;52.70;;;;;;5008249;28;20563;-62
2023/12/25 00:40:13;;;;;;;1.83;1.20;;;14.30;52.80;;;;;;5000701;28;20186;-59
2023/12/25 00:42:38;;;;;;;4.40;1.10;;;14.30;53.20;;;;;;5006642;28;20217;-59
2023/12/25 00:45:05;;;;;;;0.90;0.90;;;14.40;53.20;;;;;;5004790;28;20289;-61
2023/12/25 00:47:30;;;;;;;1.07;1.03;;;14.60;53.00;;;;;;5005805;28;20182;-59
2023/12/25 00:49:56;;;;;;;1.97;1.17;;;14.40;52.70;;;;;;5010828;28;20475;-62
2023/12/25 00:52:21;;;;;;;1.47;1.10;;;14.50;52.60;;;;;;5004820;28;20720;-62
2023/12/25 00:54:47;;;;;;;1.17;1.07;;;14.50;52.50;;;;;;5006880;28;20178;-60
2023/12/25 00:57:12;;;;;;;1.47;1.03;;;14.50;52.40;;;;;;5004126;28;20727;-61
2023/12/25 00:59:38;;;;;;;2.00;1.13;;;14.50;52.50;;;;;;5007216;28;20186;-60
2023/12/25 01:02:04;;;;;;;1.17;1.07;;;14.50;52.50;;;;;;5005993;28;20214;-60
2023/12/25 01:04:29;;;;;;;1.20;0.80;;;14.40;52.20;;;;;;5003731;28;20213;-62
2023/12/25 01:06:55;;;;;;;1.70;1.00;;;14.40;52.70;;;;;;5006607;28;20752;-60
2023/12/25 01:09:21;;;;;;;1.30;1.20;;;14.20;52.70;;;;;;5004892;28;20191;-62
2023/12/25 01:11:46;;;;;;;1.80;0.97;;;14.40;52.70;;;;;;5007188;28;20186;-59
2023/12/25 01:14:12;;;;;;;1.23;1.13;;;14.20;52.20;;;;;;5004619;28;20181;-64
2023/12/25 01:16:38;;;;;;;1.10;1.00;;;14.20;52.30;;;;;;5005948;28;20214;-61
2023/12/25 01:19:04;;;;;;;1.67;1.23;;;14.30;52.80;;;;;;5005818;28;20194;-58
2023/12/25 01:21:31;;;;;;;2.50;1.10;;;14.20;52.30;;;;;;5005539;28;20504;-60
2023/12/25 01:23:57;;;;;;;1.43;1.03;;;14.20;52.00;;;;;;5006644;28;20680;-63
2023/12/25 01:26:22;;;;;;;0.97;0.87;;;14.20;52.90;;;;;;5003497;28;20491;-61
2023/12/25 01:28:48;;;;;;;1.00;0.90;;;14.10;52.10;;;;;;5006827;28;20186;-62
2023/12/25 01:31:13;;;;;;;1.97;1.00;;;14.20;52.30;;;;;;5004583;28;20194;-58
2023/12/25 01:33:39;;;;;;;1.17;0.90;;;14.30;51.90;;;;;;5006561;28;20493;-59
2023/12/25 01:36:05;;;;;;;2.70;2.00;;;14.40;51.90;;;;;;5004693;28;20205;-61
2023/12/25 01:38:31;;;;;;;0.97;0.80;;;14.40;51.60;;;;;;5004973;28;20187;-61
2023/12/25 01:40:57;;;;;;;2.20;0.90;;;14.50;51.50;;;;;;5006505;28;20452;-59
2023/12/25 01:43:22;;;;;;;1.23;0.90;;;14.70;51.10;;;;;;5004337;28;20207;-59
2023/12/25 01:45:48;;;;;;;1.20;1.00;;;14.50;50.90;;;;;;5005932;28;20210;-63
2023/12/25 01:48:13;;;;;;;1.10;1.00;;;14.10;50.90;;;;;;5003823;28;20185;-60
2023/12/25 01:50:39;;;;;;;0.80;0.80;;;14.40;51.30;;;;;;5006539;28;20581;-61
2023/12/25 01:53:06;;;;;;;1.60;1.00;;;14.20;51.20;;;;;;5004943;28;20540;-60
2023/12/25 01:55:32;;;;;;;1.63;0.90;;;14.20;51.50;;;;;;5001683;28;20442;-60
2023/12/25 01:57:57;;;;;;;1.23;0.90;;;14.30;51.20;;;;;;5005703;28;20998;-62
2023/12/25 02:00:23;;;;;;;0.93;0.90;;;14.00;51.10;;;;;;5004294;28;20929;-61
2023/12/25 02:02:49;;;;;;;1.10;0.83;;;14.20;51.40;;;;;;5005961;28;20249;-62
2023/12/25 02:05:15;;;;;;;0.87;0.87;;;14.10;51.60;;;;;;5003130;28;20223;-60
2023/12/25 02:07:43;;;;;;;1.07;0.90;;;14.20;51.20;;;;;;5005688;28;20850;-61
2023/12/25 02:10:09;;;;;;;1.13;1.03;;;14.00;51.50;;;;;;5004355;28;20971;-61
2023/12/25 02:12:36;;;;;;;1.77;0.90;;;14.00;51.50;;;;;;5005391;28;20421;-61
2023/12/25 02:15:03;;;;;;;1.27;1.17;;;13.80;51.60;;;;;;5004886;28;20420;-59
2023/12/25 02:17:29;;;;;;;1.27;1.00;;;13.90;51.50;;;;;;5004181;28;20460;-56
2023/12/25 02:19:55;;;;;;;1.37;0.80;;;14.10;51.50;;;;;;5005844;28;20508;-60
2023/12/25 02:22:21;;;;;;;1.80;1.03;;;14.10;51.00;;;;;;5005266;28;20563;-60
2023/12/25 02:25:01;;;;;;;1.07;0.97;;;14.00;50.80;;;;;;5005334;28;20849;-61
2023/12/25 02:27:27;;;;;;;1.23;1.13;;;14.00;51.10;;;;;;5004053;28;20485;-59
2023/12/25 02:29:52;;;;;;;2.23;1.03;;;14.10;51.00;;;;;;5005645;28;20427;-60
2023/12/25 02:32:18;;;;;;;1.20;0.80;;;14.20;50.90;;;;;;5003328;28;20422;-58
2023/12/25 02:34:44;;;;;;;0.80;0.80;;;14.20;50.50;;;;;;5005171;28;20201;-60
2023/12/25 02:37:10;;;;;;;1.87;0.90;;;14.00;50.80;;;;;;5003186;28;20220;-60
2023/12/25 02:39:35;;;;;;;1.60;1.00;;;13.80;51.10;;;;;;5005348;28;20797;-60
2023/12/25 02:42:01;;;;;;;1.00;0.80;;;13.90;51.20;;;;;;5004542;28;20972;-59
2023/12/25 02:44:27;;;;;;;2.90;1.20;;;13.80;51.10;;;;;;5003780;28;20210;-60
2023/12/25 02:46:52;;;;;;;2.00;1.17;;;13.90;51.30;;;;;;5004429;28;20198;-60
2023/12/25 02:49:18;;;;;;;2.53;1.27;;;13.80;51.40;;;;;;4998779;28;20601;-60
2023/12/25 02:51:43;;;;;;;4.40;2.43;;;13.90;51.30;;;;;;5006162;28;20664;-59
2023/12/25 02:54:09;;;;;;;0.80;0.80;;;13.90;51.40;;;;;;5003458;28;20186;-58
2023/12/25 02:56:34;;;;;;;1.83;0.93;;;14.00;51.00;;;;;;5000942;28;20301;-60
2023/12/25 02:59:00;;;;;;;1.50;1.40;;;14.20;50.60;;;;;;5004912;28;20190;-60
2023/12/25 03:01:25;;;;;;;0.97;0.83;;;14.30;50.20;;;;;;5003489;28;20182;-59
2023/12/25 03:03:51;;;;;;;1.57;0.90;;;14.40;50.10;;;;;;5005036;28;20226;-60
2023/12/25 03:06:17;;;;;;;1.27;0.70;;;14.40;49.70;;;;;;5001274;28;20312;-60
2023/12/25 03:08:42;;;;;;;3.20;1.00;;;14.40;49.80;;;;;;5005127;28;20188;-59
2023/12/25 03:11:08;;;;;;;0.80;0.80;;;14.40;49.60;;;;;;5003568;28;20610;-60
2023/12/25 03:13:34;;;;;;;1.07;0.97;;;14.20;49.40;;;;;;5004590;28;20174;-60
2023/12/25 03:16:05;;;;;;;1.20;1.10;;;14.00;49.70;;;;;;5003924;28;20444;-60
2023/12/25 03:18:30;;;;;;;0.90;0.70;;;13.90;49.90;;;;;;5003795;28;20798;-59
2023/12/25 03:20:56;;;;;;;0.87;0.87;;;13.80;49.60;;;;;;5007114;28;20417;-59
2023/12/25 03:23:21;;;;;;;1.00;0.90;;;13.60;49.60;;;;;;5002828;28;20272;-60
2023/12/25 03:25:47;;;;;;;1.20;1.10;;;13.80;49.90;;;;;;5004412;28;20700;-60
2023/12/25 03:28:12;;;;;;;1.33;1.00;;;13.60;49.60;;;;;;5002318;28;20543;-59
2023/12/25 03:30:38;;;;;;;2.67;1.00;;;14.00;49.50;;;;;;5005081;28;20654;-60
2023/12/25 03:33:03;;;;;;;1.73;1.03;;;13.80;49.10;;;;;;5004236;28;20689;-61
2023/12/25 03:35:29;;;;;;;1.57;1.03;;;13.80;49.20;;;;;;5003339;28;20198;-61
2023/12/25 03:37:54;;;;;;;1.00;0.90;;;13.90;49.50;;;;;;5005122;28;20185;-59
2023/12/25 03:40:20;;;;;;;0.90;0.90;;;14.00;49.30;;;;;;5002750;28;20186;-59
2023/12/25 03:42:45;;;;;;;1.60;0.93;;;14.00;48.90;;;;;;5005033;28;20252;-59
2023/12/25 03:45:11;;;;;;;1.13;1.03;;;14.20;49.00;;;;;;5002168;28;20214;-60
2023/12/25 03:47:36;;;;;;;1.37;0.73;;;14.10;48.60;;;;;;5004293;28;20186;-60
2023/12/25 03:50:02;;;;;;;1.00;0.90;;;14.30;48.60;;;;;;5004024;28;20182;-59
2023/12/25 03:52:27;;;;;;;0.97;0.80;;;14.20;48.30;;;;;;5003378;28;20190;-59
2023/12/25 03:54:53;;;;;;;4.00;0.93;;;14.20;49.10;;;;;;5001926;28;20572;-59
2023/12/25 03:57:19;;;;;;;1.03;1.00;;;14.20;48.30;;;;;;5001946;28;20659;-60
2023/12/25 03:59:44;;;;;;;1.10;1.00;;;14.50;48.30;;;;;;5004994;28;20260;-59
2023/12/25 04:02:10;;;;;;;1.00;0.90;;;14.50;47.80;;;;;;5001849;28;20213;-59
2023/12/25 04:04:39;;;;;;;1.73;1.00;;;14.60;47.60;;;;;;5003605;28;20194;-60
2023/12/25 04:07:04;;;;;;;0.80;0.80;;;14.40;47.80;;;;;;5003184;28;20228;-59
2023/12/25 04:09:30;;;;;;;3.07;1.20;;;14.50;47.90;;;;;;5002534;28;20417;-60
2023/12/25 04:11:55;;;;;;;0.80;0.80;;;14.40;48.00;;;;;;5004127;28;20461;-59
2023/12/25 04:14:21;;;;;;;0.80;0.77;;;14.30;47.80;;;;;;5002237;28;20186;-59
2023/12/25 04:16:47;;;;;;;1.20;0.83;;;14.20;48.20;;;;;;5003878;28;20248;-59
2023/12/25 04:19:12;;;;;;;1.27;1.17;;;14.40;48.20;;;;;;5005214;28;20193;-60
2023/12/25 04:21:38;;;;;;;1.20;1.00;;;14.40;48.20;;;;;;5008250;28;20186;-58
2023/12/25 04:24:04;;;;;;;1.10;0.90;;;14.40;48.10;;;;;;5007120;28;20232;-60
2023/12/25 04:26:29;;;;;;;0.80;0.80;;;14.50;48.00;;;;;;5005802;28;20203;-57
2023/12/25 04:28:55;;;;;;;1.20;1.10;;;14.80;47.60;;;;;;5008056;28;20684;-59
2023/12/25 04:31:21;;;;;;;1.00;0.90;;;14.80;47.40;;;;;;5005996;28;20191;-59
2023/12/25 04:33:46;;;;;;;0.97;0.90;;;14.70;47.30;;;;;;5008158;28;20709;-58
2023/12/25 04:36:12;;;;;;;1.43;0.60;;;14.60;47.40;;;;;;5004787;28;20206;-58
2023/12/25 04:38:38;;;;;;;0.70;0.70;;;14.50;47.70;;;;;;5007821;28;20613;-58
2023/12/25 04:41:04;;;;;;;2.40;0.90;;;14.70;47.50;;;;;;5007032;28;20614;-60
2023/12/25 04:43:30;;;;;;;0.80;0.80;;;14.80;47.30;;;;;;5006454;28;20473;-60
2023/12/25 04:45:55;;;;;;;1.40;1.20;;;15.00;47.00;;;;;;5007057;28;20972;-59
2023/12/25 04:48:21;;;;;;;2.10;0.90;;;15.00;46.80;;;;;;5005117;28;20197;-60
2023/12/25 04:50:47;;;;;;;1.63;0.90;;;14.90;46.90;;;;;;5007756;28;20217;-59
2023/12/25 04:53:13;;;;;;;1.73;1.10;;;14.90;47.00;;;;;;5005210;28;20630;-59
2023/12/25 04:55:39;;;;;;;1.03;0.70;;;14.90;46.80;;;;;;5003995;28;20210;-60
2023/12/25 04:58:05;;;;;;;1.93;1.70;;;14.90;47.00;;;;;;5005961;28;20182;-58
2023/12/25 05:00:32;;;;;;;1.10;1.00;;;14.70;47.20;;;;;;5006360;28;20505;-60
2023/12/25 05:02:58;;;;;;;1.77;0.90;;;14.50;47.50;;;;;;5006127;28;20332;-59
2023/12/25 05:05:24;;;;;;;0.70;0.70;;;14.20;48.00;;;;;;5004489;28;20556;-60
2023/12/25 05:07:49;;;;;;;0.97;0.80;;;14.30;47.90;;;;;;5007001;28;20516;-60
2023/12/25 05:10:15;;;;;;;1.00;0.90;;;14.40;47.90;;;;;;5005183;28;20937;-59
2023/12/25 05:12:40;;;;;;;1.33;1.23;;;14.30;47.80;;;;;;5007207;28;20198;-60
2023/12/25 05:15:07;;;;;;;1.17;1.00;;;14.30;48.00;;;;;;5005350;28;20186;-59
2023/12/25 05:17:32;;;;;;;1.67;1.10;;;14.20;47.90;;;;;;5005969;28;20221;-60
2023/12/25 05:19:58;;;;;;;3.93;0.97;;;14.10;48.00;;;;;;5007255;28;20534;-59
2023/12/25 05:22:24;;;;;;;1.00;0.80;;;14.20;48.40;;;;;;5005090;28;20253;-59
2023/12/25 05:24:49;;;;;;;0.90;0.90;;;14.30;48.20;;;;;;5006439;28;21091;-58
2023/12/25 05:27:15;;;;;;;0.80;0.80;;;14.30;48.10;;;;;;5004626;28;20186;-59
2023/12/25 05:29:40;;;;;;;1.03;0.87;;;14.40;47.80;;;;;;5006270;28;20328;-59
2023/12/25 05:32:06;;;;;;;4.27;0.80;;;14.40;48.00;;;;;;5005645;28;20192;-60
2023/12/25 05:34:31;;;;;;;0.80;0.80;;;14.60;47.80;;;;;;5005320;28;20175;-61
2023/12/25 05:36:57;;;;;;;1.13;1.00;;;14.80;47.40;;;;;;5006332;28;20198;-59
2023/12/25 05:39:24;;;;;;;1.10;0.87;;;14.60;47.20;;;;;;5004747;28;20178;-59
2023/12/25 05:41:50;;;;;;;0.83;0.77;;;14.50;47.60;;;;;;5006666;28;20182;-59
2023/12/25 05:44:16;;;;;;;1.27;1.17;;;14.60;47.30;;;;;;5004767;28;20512;-59
2023/12/25 05:46:42;;;;;;;1.17;1.07;;;14.70;47.30;;;;;;5005622;28;20590;-60
2023/12/25 05:49:08;;;;;;;1.73;1.03;;;14.70;47.30;;;;;;5005179;28;20433;-60
2023/12/25 05:51:33;;;;;;;0.70;0.70;;;14.60;47.10;;;;;;5005928;28;20181;-60
2023/12/25 05:53:59;;;;;;;1.40;1.00;;;14.80;47.10;;;;;;5006307;28;20654;-60
2023/12/25 05:56:24;;;;;;;0.90;0.90;;;15.00;46.80;;;;;;5000584;28;20290;-60
2023/12/25 05:58:50;;;;;;;0.93;0.90;;;14.70;46.70;;;;;;5006547;28;20267;-60
2023/12/25 06:01:16;;;;;;;1.03;0.93;;;14.60;46.80;;;;;;5004421;28;20190;-60
2023/12/25 06:03:42;;;;;;;1.60;0.90;;;14.70;47.20;;;;;;5006159;28;20487;-59
2023/12/25 06:06:10;;;;;;;1.47;0.80;;;14.80;46.80;;;;;;5005734;28;20768;-60
2023/12/25 06:08:36;;;;;;;1.07;0.97;;;14.80;47.00;;;;;;5006055;28;20631;-59
2023/12/25 06:11:01;;;;;;;1.13;1.03;;;14.90;46.90;;;;;;5007487;28;20428;-59
2023/12/25 06:13:27;;;;;;;1.60;1.30;;;14.90;46.80;;;;;;5004674;28;20182;-59
2023/12/25 06:15:53;;;;;;;1.53;0.90;;;15.10;46.70;;;;;;5004842;28;20210;-59
2023/12/25 06:18:18;;;;;;;1.40;1.00;;;15.10;46.50;;;;;;5003990;28;20183;-60
2023/12/25 06:20:44;;;;;;;0.90;0.90;;;15.30;46.50;;;;;;5006271;28;20265;-60
2023/12/25 06:23:10;;;;;;;0.80;0.70;;;15.40;46.30;;;;;;5004278;28;20863;-59
2023/12/25 06:25:36;;;;;;;2.50;0.80;;;15.40;46.10;;;;;;5004919;28;20832;-61
2023/12/25 06:28:02;;;;;;;1.80;0.97;;;15.00;46.20;;;;;;5004941;28;20194;-58
2023/12/25 06:30:28;;;;;;;1.10;1.00;;;14.90;46.80;;;;;;5004382;28;20430;-61
2023/12/25 06:32:54;;;;;;;1.20;0.90;;;14.70;46.90;;;;;;5005780;28;20448;-60
2023/12/25 06:35:20;;;;;;;1.23;0.90;;;14.60;47.00;;;;;;5002819;28;20446;-58
2023/12/25 06:37:45;;;;;;;3.80;0.90;;;14.60;47.60;;;;;;5005176;28;20606;-60
2023/12/25 06:40:11;;;;;;;1.50;0.90;;;14.80;47.40;;;;;;5003940;28;20194;-60
2023/12/25 06:42:37;;;;;;;1.07;0.97;;;14.80;47.00;;;;;;5005344;28;20248;-59
2023/12/25 06:45:04;;;;;;;1.07;0.80;;;14.70;47.20;;;;;;5004210;28;20182;-60
2023/12/25 06:47:30;;;;;;;0.90;0.70;;;14.80;47.10;;;;;;5004098;28;20187;-60
2023/12/25 06:49:56;;;;;;;1.00;0.90;;;14.80;46.80;;;;;;5006602;28;20502;-59
2023/12/25 06:52:21;;;;;;;1.67;0.90;;;14.80;47.20;;;;;;5006377;28;20175;-59
2023/12/25 06:54:47;;;;;;;1.97;1.00;;;14.90;46.80;;;;;;5005039;28;20181;-58
2023/12/25 06:57:14;;;;;;;1.47;1.30;;;14.80;46.90;;;;;;5000260;28;20206;-59
2023/12/25 06:59:43;;;;;;;1.00;1.00;;;15.00;46.90;;;;;;5005065;28;20189;-59
2023/12/25 07:02:09;;;;;;;1.80;1.70;;;15.00;46.70;;;;;;5003635;28;20408;-60
2023/12/25 07:04:36;;;;;;;1.40;1.30;;;15.20;46.50;;;;;;5005990;28;20448;-59
2023/12/25 07:07:01;;;;;;;1.40;1.30;;;15.40;46.50;;;;;;5006352;28;20260;-60
2023/12/25 07:09:27;;;;;;;1.10;1.00;;;15.50;46.30;;;;;;5003550;28;20732;-60
2023/12/25 07:11:52;;;;;;;1.60;1.27;;;15.50;46.10;;;;;;5005444;28;20186;-57
2023/12/25 07:14:18;;;;;;;0.80;0.80;;;15.60;46.00;;;;;;5003110;28;20220;-60
2023/12/25 07:16:44;;;;;;;1.80;1.07;;;15.60;45.90;;;;;;5004689;28;20208;-59
2023/12/25 07:19:10;;;;;;;1.83;1.07;;;15.70;45.90;;;;;;5003146;28;20186;-58
2023/12/25 07:21:36;;;;;;;1.00;1.00;;;15.70;45.80;;;;;;5004795;28;20563;-59
2023/12/25 07:24:02;;;;;;;1.33;1.17;;;15.70;45.70;;;;;;5004693;28;20213;-60
2023/12/25 07:26:28;;;;;;;1.83;1.73;;;15.70;46.00;;;;;;5002896;28;20241;-59
2023/12/25 07:28:54;;;;;;;2.67;1.67;;;15.60;45.50;;;;;;5004666;28;20940;-59
2023/12/25 07:31:21;;;;;;;2.27;0.90;;;15.50;45.20;;;;;;5002887;28;20178;-60
2023/12/25 07:33:47;;;;;;;1.67;0.90;;;15.30;45.20;;;;;;5005079;28;20213;-60
2023/12/25 07:36:13;;;;;;;1.30;1.13;;;15.30;45.10;;;;;;5004026;28;20472;-59
2023/12/25 07:38:41;;;;;;;2.53;1.50;;;15.20;45.30;;;;;;5004760;28;20933;-59
2023/12/25 07:41:08;;;;;;;0.97;0.97;;;15.20;45.30;;;;;;5005691;28;20451;-60
2023/12/25 07:43:35;;;;;;;1.07;0.97;;;15.20;45.00;;;;;;5004310;28;20950;-60
2023/12/25 07:46:04;;;;;;;1.23;1.13;;;15.00;45.30;;;;;;5003755;28;21175;-60
2023/12/25 07:48:30;;;;;;;1.17;0.90;;;15.10;45.30;;;;;;5003378;28;20426;-59
2023/12/25 07:50:58;;;;;;;1.30;1.20;;;15.20;45.20;;;;;;5005366;28;20428;-58
2023/12/25 07:53:23;;;;;;;1.77;1.33;;;15.00;45.00;;;;;;5004556;28;20179;-59
2023/12/25 07:55:49;;;;;;;2.00;1.20;;;15.10;45.30;;;;;;5009907;28;21152;-60
2023/12/25 07:58:14;;;;;;;1.20;1.10;;;15.20;45.20;;;;;;5006515;28;20544;-60
2023/12/25 08:00:42;;;;;;;2.30;1.33;;;15.10;44.80;;;;;;5008776;28;20178;-60
2023/12/25 08:03:09;;;;;;;1.13;1.00;;;15.10;44.90;;;;;;5007095;28;20217;-60
2023/12/25 08:05:35;;;;;;;1.93;1.50;;;15.20;45.00;;;;;;5007527;28;20443;-60
2023/12/25 08:08:00;;;;;;;1.20;1.10;;;15.30;44.80;;;;;;5007884;28;20771;-60
2023/12/25 08:10:26;;;;;;;1.20;1.10;;;15.40;44.60;;;;;;5007066;28;20619;-58
2023/12/25 08:12:52;;;;;;;1.40;1.10;;;15.20;44.50;;;;;;5008600;28;20217;-62
2023/12/25 08:15:18;;;;;;;1.27;1.17;;;15.10;44.60;;;;;;5005700;28;20440;-59
2023/12/25 08:17:44;;;;;;;1.00;1.00;;;15.10;44.70;;;;;;5009215;28;20456;-60
2023/12/25 08:20:10;;;;;;;1.93;1.83;;;15.00;44.80;;;;;;5006611;28;20182;-59
2023/12/25 08:22:35;;;;;;;1.37;1.27;;;15.00;45.10;;;;;;5008054;28;20216;-59
2023/12/25 08:25:03;;;;;;;1.20;1.10;;;15.20;45.00;;;;;;5001407;28;20516;-60
2023/12/25 08:27:28;;;;;;;1.57;1.10;;;15.00;44.70;;;;;;5006958;28;20639;-59
2023/12/25 08:29:54;;;;;;;1.40;1.30;;;14.80;45.10;;;;;;5007857;28;20531;-59
2023/12/25 08:32:20;;;;;;;1.17;1.07;;;14.70;45.30;;;;;;5005967;28;20182;-59
2023/12/25 08:34:45;;;;;;;1.97;1.10;;;14.70;45.70;;;;;;5007661;28;20516;-60
2023/12/25 08:37:11;;;;;;;2.23;1.60;;;14.70;45.60;;;;;;5006284;28;20347;-59
2023/12/25 08:39:36;;;;;;;1.63;1.30;;;14.80;45.30;;;;;;5007624;28;20194;-59
2023/12/25 08:42:04;;;;;;;0.70;0.70;;;14.70;45.50;;;;;;5007489;28;20614;-58
2023/12/25 08:44:32;;;;;;;0.93;0.80;;;14.90;45.50;;;;;;5006641;28;20182;-58
2023/12/25 08:46:58;;;;;;;0.80;0.80;;;15.00;45.30;;;;;;5007868;28;20441;-59
2023/12/25 08:49:24;;;;;;;1.57;1.47;;;14.90;45.20;;;;;;5007569;28;20425;-60
2023/12/25 08:51:50;;;;;;;1.03;0.90;;;14.70;46.10;;;;;;5007830;28;20468;-59
2023/12/25 08:54:16;;;;;;;1.17;1.00;;;14.70;45.60;;;;;;5005827;28;20452;-59
2023/12/25 08:56:41;;;;;;;1.30;1.20;;;14.70;45.90;;;;;;5007009;28;20202;-59
2023/12/25 08:59:07;;;;;;;1.03;0.90;;;14.80;46.10;;;;;;5006226;28;20193;-59
2023/12/25 09:01:33;;;;;;;1.17;1.10;;;15.00;45.90;;;;;;5007055;28;20193;-60
2023/12/25 09:03:58;;;;;;;1.43;0.90;;;15.00;45.70;;;;;;5006822;28;20221;-59
2023/12/25 09:06:25;;;;;;;1.57;1.17;;;15.00;45.70;;;;;;5001857;28;20198;-59
2023/12/25 09:08:51;;;;;;;1.50;1.30;;;15.00;45.90;;;;;;5007252;28;20757;-60
2023/12/25 09:11:17;;;;;;;1.50;1.30;;;15.10;45.90;;;;;;5005579;28;20416;-58
2023/12/25 09:13:43;;;;;;;2.00;1.53;;;15.00;46.20;;;;;;5007601;28;20836;-59
2023/12/25 09:16:08;;;;;;;1.53;1.43;;;14.90;46.30;;;;;;5005924;28;20445;-59
2023/12/25 09:18:34;;;;;;;1.30;1.03;;;14.80;46.70;;;;;;5006878;28;20431;-60
2023/12/25 09:21:00;;;;;;;2.43;2.00;;;15.00;46.80;;;;;;5009053;28;20178;-58
2023/12/25 09:23:26;;;;;;;1.90;1.50;;;15.00;46.60;;;;;;5005755;28;20211;-59
2023/12/25 09:25:51;;;;;;;2.70;1.93;;;15.10;46.90;;;;;;5007133;28;20490;-59
2023/12/25 09:28:17;;;;;;;2.00;1.77;;;15.00;46.80;;;;;;5004858;28;20237;-59
2023/12/25 09:30:44;;;;;;;1.53;1.13;;;15.10;47.00;;;;;;5007163;28;20189;-59
2023/12/25 09:33:10;;;;;;;1.47;1.37;;;15.00;47.20;;;;;;5005560;28;20178;-58
2023/12/25 09:35:35;;;;;;;1.30;1.20;;;14.90;47.50;;;;;;5006074;28;20448;-59
2023/12/25 09:38:01;;;;;;;1.30;1.03;;;14.60;47.80;;;;;;5007294;28;20190;-60
2023/12/25 09:40:27;;;;;;;1.33;1.23;;;14.60;48.30;;;;;;5005451;28;20179;-59
2023/12/25 09:42:53;;;;;;;1.20;1.10;;;14.60;48.40;;;;;;5006794;28;20483;-59
2023/12/25 09:45:20;;;;;;;1.20;1.10;;;14.50;48.60;;;;;;5004020;28;20950;-60
2023/12/25 09:47:46;;;;;;;0.93;0.93;;;14.20;49.10;;;;;;5006737;28;20201;-60
2023/12/25 09:50:14;;;;;;;1.77;1.00;;;14.20;49.70;;;;;;5005892;28;20424;-60
2023/12/25 09:52:39;;;;;;;1.23;1.13;;;14.20;49.40;;;;;;5006690;28;20795;-59
2023/12/25 09:55:05;;;;;;;2.00;1.20;;;14.30;49.70;;;;;;5005058;28;20413;-60
2023/12/25 09:57:32;;;;;;;1.50;1.40;;;14.40;49.80;;;;;;5005775;28;20190;-59
2023/12/25 10:00:00;;;;;;;1.17;1.07;;;14.60;49.90;;;;;;5006460;28;20178;-59
2023/12/25 10:02:28;;;;;;;1.00;1.00;;;14.80;49.40;;;;;;5003008;28;20557;-60
2023/12/25 10:04:53;;;;;;;0.80;0.80;;;14.80;49.40;;;;;;5006968;28;20467;-60
2023/12/25 10:07:22;;;;;;;1.30;1.20;;;14.60;49.80;;;;;;5004666;28;20432;-60
2023/12/25 10:09:49;;;;;;;1.67;1.30;;;14.70;50.20;;;;;;5006208;28;20174;-60
2023/12/25 10:12:15;;;;;;;1.53;1.10;;;15.00;50.50;;;;;;5004967;28;20425;-60
2023/12/25 10:14:40;;;;;;;1.00;1.00;;;15.30;49.10;;;;;;5005813;28;20511;-60
2023/12/25 10:17:06;;;;;;;1.20;1.10;;;15.40;48.90;;;;;;5006355;28;20217;-59
2023/12/25 10:19:31;;;;;;;1.30;0.93;;;15.50;48.60;;;;;;5004906;28;20186;-59
2023/12/25 10:21:57;;;;;;;5.97;1.20;;;15.50;48.60;;;;;;5006352;28;20281;-58
2023/12/25 10:24:26;;;;;;;1.30;1.20;;;15.50;48.80;;;;;;5004016;28;20269;-58
2023/12/25 10:26:52;;;;;;;1.27;1.17;;;15.40;49.20;;;;;;5005580;28;20693;-59
2023/12/25 10:29:17;;;;;;;1.10;1.00;;;15.40;49.50;;;;;;5003756;28;20431;-59
2023/12/25 10:31:44;;;;;;;1.03;0.93;;;15.40;49.60;;;;;;5006215;28;20217;-59
2023/12/25 10:34:09;;;;;;;1.10;1.00;;;15.10;50.20;;;;;;5004552;28;20641;-59
2023/12/25 10:36:35;;;;;;;0.70;0.70;;;15.10;50.50;;;;;;5004974;28;20451;-59
2023/12/25 10:39:01;;;;;;;1.00;0.90;;;15.00;50.80;;;;;;5005169;28;20247;-60
2023/12/25 10:41:31;;;;;;;1.73;0.80;;;15.00;51.60;;;;;;5004337;28;20505;-59
2023/12/25 10:43:59;;;;;;;0.97;0.80;;;14.90;52.00;;;;;;5007406;28;20300;-59
2023/12/25 10:46:36;;;;;;;1.40;1.10;;;14.80;52.60;;;;;;5003422;28;20501;-59
2023/12/25 10:49:04;;;;;;;1.67;0.77;;;14.70;53.30;;;;;;5005025;28;20431;-60
2023/12/25 10:51:31;;;;;;;0.73;0.73;;;14.60;53.40;;;;;;5005815;28;20488;-59
2023/12/25 10:54:09;;;;;;;1.30;1.20;;;14.70;53.80;;;;;;5005829;28;20452;-59
2023/12/25 10:56:36;;;;;;;0.80;0.80;;;14.80;53.50;;;;;;5004563;28;20460;-60
2023/12/25 10:59:11;;;;;;;0.90;0.90;;;14.80;53.70;;;;;;5004979;28;20428;-59
2023/12/25 11:01:39;;;;;;;1.37;0.80;;;14.80;53.90;;;;;;5005534;28;20447;-59
2023/12/25 11:04:05;;;;;;;1.00;0.93;;;15.00;53.90;;;;;;5004675;28;21011;-60
2023/12/25 11:06:31;;;;;;;0.90;0.80;;;14.90;54.00;;;;;;5003892;28;20473;-58
2023/12/25 11:08:57;;;;;;;0.70;0.67;;;15.00;53.90;;;;;;5005290;28;20186;-59
2023/12/25 11:11:23;;;;;;;2.37;1.70;;;14.90;53.80;;;;;;5003726;28;20434;-59
2023/12/25 11:13:49;;;;;;;0.73;0.73;;;14.80;54.00;;;;;;5005542;28;20193;-59
2023/12/25 11:16:15;;;;;;;1.00;0.90;;;14.70;54.00;;;;;;5002966;28;20783;-60
2023/12/25 11:18:40;;;;;;;1.23;0.70;;;14.80;54.10;;;;;;5005230;28;20244;-60
2023/12/25 11:21:18;;;;;;;1.03;0.90;;;14.80;54.30;;;;;;5004560;28;20638;-60
2023/12/25 11:23:46;;;;;;;0.80;0.80;;;14.90;54.40;;;;;;5000137;28;20296;-60
2023/12/25 11:26:16;;;;;;;1.27;1.00;;;14.70;54.40;;;;;;5003927;28;20449;-60
2023/12/25 11:28:43;;;;;;;0.70;0.70;;;15.00;54.60;;;;;;4998796;28;20482;-59
2023/12/25 11:31:13;;;;;;;1.10;1.00;;;15.20;54.40;;;;;;5004121;28;20427;-60
2023/12/25 11:33:46;;;;;;;2.10;0.87;;;15.10;54.30;;;;;;4999479;28;20651;-60
2023/12/25 11:36:13;;;;;;;1.00;0.70;;;15.00;54.50;;;;;;5002838;28;20972;-60
2023/12/25 11:38:42;;;;;;;0.70;0.70;;;14.90;54.70;;;;;;4998760;28;20433;-59
2023/12/25 11:41:13;;;;;;;1.10;0.90;;;14.80;54.80;;;;;;5004199;28;20528;-60
2023/12/25 11:43:40;;;;;;;1.30;1.20;;;15.10;54.90;;;;;;4999106;28;20555;-59
2023/12/25 11:46:12;;;;;;;1.03;0.93;;;15.30;54.60;;;;;;5003744;28;20437;-60
2023/12/25 11:48:38;;;;;;;1.20;0.80;;;15.40;54.40;;;;;;4998554;28;20437;-59
2023/12/25 11:51:22;;;;;;;1.80;0.73;;;15.40;54.40;;;;;;5005754;28;20405;-60
2023/12/25 11:53:50;;;;;;;1.00;0.83;;;15.60;54.00;;;;;;5000321;28;20189;-59
2023/12/25 11:56:17;;;;;;;0.80;0.80;;;15.50;54.00;;;;;;5002814;28;20479;-60
2023/12/25 11:58:43;;;;;;;0.70;0.60;;;15.50;54.30;;;;;;5005634;28;20440;-59
2023/12/25 12:01:19;;;;;;;0.70;0.70;;;15.80;54.10;;;;;;5002984;28;20435;-60
2023/12/25 12:03:46;;;;;;;1.57;0.73;;;15.90;54.00;;;;;;5001545;28;20564;-59
2023/12/25 12:06:14;;;;;;;1.00;0.73;;;16.00;53.60;;;;;;5002801;28;20448;-59
2023/12/25 12:08:40;;;;;;;1.20;1.00;;;16.00;53.40;;;;;;4998926;28;20417;-60
2023/12/25 12:11:06;;;;;;;1.40;0.90;;;15.70;53.80;;;;;;5004392;28;20925;-60
2023/12/25 12:13:32;;;;;;;0.77;0.77;;;15.80;53.80;;;;;;5004138;28;20501;-60
2023/12/25 12:15:58;;;;;;;0.70;0.70;;;15.60;54.10;;;;;;5004495;28;20213;-58
2023/12/25 12:18:26;;;;;;;1.57;0.70;;;15.30;54.40;;;;;;5002745;28;20422;-60
2023/12/25 12:20:53;;;;;;;0.80;0.80;;;15.30;54.80;;;;;;5005054;28;20883;-60
2023/12/25 12:23:19;;;;;;;0.70;0.70;;;15.40;54.70;;;;;;5003132;28;21011;-60
2023/12/25 12:25:46;;;;;;;0.77;0.70;;;15.60;54.80;;;;;;5005511;28;20432;-59
2023/12/25 12:28:17;;;;;;;1.00;0.90;;;15.70;54.40;;;;;;5002840;28;20190;-60
2023/12/25 12:30:43;;;;;;;0.70;0.70;;;15.60;54.20;;;;;;4999267;28;20913;-60
2023/12/25 12:33:10;;;;;;;1.37;0.80;;;15.50;54.60;;;;;;5003705;28;20425;-59
2023/12/25 12:35:36;;;;;;;0.83;0.80;;;15.70;54.70;;;;;;5003471;28;20448;-59
2023/12/25 12:38:04;;;;;;;0.70;0.70;;;15.80;54.10;;;;;;5004228;28;20792;-59
2023/12/25 12:40:30;;;;;;;1.00;1.00;;;16.00;54.00;;;;;;5006861;28;20229;-60
2023/12/25 12:42:56;;;;;;;4.00;0.83;;;16.00;53.70;;;;;;5008249;28;20559;-60